Time;durP1;ratioP1;P1;durP2;ratioP2;P2;SDS_P1;SDS_P2;PMS_P1;PMS_P2;Temp;Humidity;BMP_temperature;BMP_pressure;BME280_temperature;BME280_humidity;BME280_pressure;Samples;Min_cycle;Max_cycle;Signal;HPM_P1;HPM_P2
2023/05/04 00:01:58;;;;;;;2.57;2.37;;;9.30;99.90;;;;;;5051722;28;20493;-53
2023/05/04 00:04:24;;;;;;;2.30;2.10;;;9.30;99.90;;;;;;5051413;28;20533;-54
2023/05/04 00:06:51;;;;;;;2.97;2.57;;;9.30;99.90;;;;;;5051405;28;20568;-53
2023/05/04 00:09:18;;;;;;;3.17;2.60;;;9.30;99.90;;;;;;5051302;28;20490;-53
2023/05/04 00:11:46;;;;;;;2.50;2.17;;;9.30;99.90;;;;;;5051773;28;20903;-53
2023/05/04 00:14:13;;;;;;;2.90;2.70;;;9.30;99.90;;;;;;5051778;28;20489;-53
2023/05/04 00:16:40;;;;;;;2.03;1.83;;;9.30;99.90;;;;;;5050932;28;20524;-53
2023/05/04 00:19:07;;;;;;;2.90;1.77;;;9.10;99.90;;;;;;5051399;28;20473;-54
2023/05/04 00:21:34;;;;;;;2.80;2.10;;;9.20;99.90;;;;;;5051259;28;20493;-53
2023/05/04 00:24:01;;;;;;;2.40;2.20;;;9.10;99.90;;;;;;5051469;28;20524;-53
2023/05/04 00:26:28;;;;;;;2.50;1.80;;;9.10;99.90;;;;;;5051467;28;20474;-53
2023/05/04 00:28:56;;;;;;;2.57;2.37;;;9.30;99.90;;;;;;5051541;28;20524;-56
2023/05/04 00:31:23;;;;;;;3.13;2.40;;;9.20;99.90;;;;;;5050724;28;20574;-54
2023/05/04 00:33:50;;;;;;;2.37;1.90;;;9.50;99.90;;;;;;5050287;28;20990;-54
2023/05/04 00:36:17;;;;;;;4.80;2.07;;;9.50;99.90;;;;;;5051259;28;20536;-52
2023/05/04 00:38:49;;;;;;;2.40;2.20;;;9.10;99.90;;;;;;5051348;28;20521;-53
2023/05/04 00:41:16;;;;;;;2.73;2.27;;;9.00;99.90;;;;;;5051084;28;20820;-53
2023/05/04 00:43:43;;;;;;;2.37;2.17;;;9.00;99.90;;;;;;5051001;28;20963;-52
2023/05/04 00:46:12;;;;;;;2.60;2.30;;;8.60;99.90;;;;;;5051157;28;20505;-55
2023/05/04 00:48:39;;;;;;;3.13;2.23;;;8.60;99.90;;;;;;5051028;28;20528;-54
2023/05/04 00:51:07;;;;;;;2.83;2.47;;;8.10;99.90;;;;;;5050854;28;20469;-54
2023/05/04 00:53:35;;;;;;;2.53;1.90;;;8.20;99.90;;;;;;5050415;28;20446;-53
2023/05/04 00:56:03;;;;;;;2.90;2.20;;;8.40;99.90;;;;;;5051279;28;20521;-54
2023/05/04 00:58:32;;;;;;;2.70;2.00;;;8.50;99.90;;;;;;5050704;28;21012;-53
2023/05/04 01:00:59;;;;;;;3.60;2.70;;;8.60;99.90;;;;;;5050980;28;20519;-54
2023/05/04 01:03:28;;;;;;;2.17;1.90;;;8.80;99.90;;;;;;5050946;28;20503;-53
2023/05/04 01:06:04;;;;;;;2.40;2.20;;;9.00;99.90;;;;;;5050478;28;20438;-53
2023/05/04 01:08:32;;;;;;;2.40;2.20;;;8.90;99.90;;;;;;5050692;28;20487;-53
2023/05/04 01:11:06;;;;;;;3.33;2.00;;;8.80;99.90;;;;;;5050844;28;20475;-53
2023/05/04 01:13:35;;;;;;;2.90;2.00;;;8.70;99.90;;;;;;5050797;28;20952;-53
2023/05/04 01:16:03;;;;;;;2.83;2.00;;;8.80;99.90;;;;;;5054593;28;20433;-54
2023/05/04 01:18:31;;;;;;;3.83;2.03;;;8.80;99.90;;;;;;5054668;28;20533;-53
2023/05/04 01:20:58;;;;;;;2.80;2.07;;;8.80;99.90;;;;;;5035323;28;20462;-55
2023/05/04 01:23:27;;;;;;;2.03;1.83;;;8.60;99.90;;;;;;5045372;28;20445;-52
2023/05/04 01:26:03;;;;;;;2.27;1.90;;;8.60;99.90;;;;;;5054868;28;20532;-53
2023/05/04 01:28:38;;;;;;;3.00;2.63;;;8.90;99.90;;;;;;5054233;28;20441;-54
2023/05/04 01:31:08;;;;;;;1.83;1.63;;;9.00;99.90;;;;;;5053685;28;21081;-53
2023/05/04 01:33:35;;;;;;;2.33;2.13;;;8.90;99.90;;;;;;5054665;28;21059;-54
2023/05/04 01:36:02;;;;;;;2.30;1.77;;;8.90;99.90;;;;;;5054888;28;20488;-53
2023/05/04 01:38:31;;;;;;;2.87;2.23;;;8.70;99.90;;;;;;5053763;28;20887;-53
2023/05/04 01:40:58;;;;;;;2.93;2.40;;;8.40;99.90;;;;;;5054644;28;20465;-53
2023/05/04 01:43:25;;;;;;;3.90;2.10;;;8.50;99.90;;;;;;5054178;28;20894;-53
2023/05/04 01:45:52;;;;;;;3.27;2.40;;;8.40;99.90;;;;;;5054576;28;20452;-53
2023/05/04 01:48:18;;;;;;;2.57;1.90;;;8.50;99.90;;;;;;5054312;28;20485;-53
2023/05/04 01:50:45;;;;;;;2.17;1.97;;;8.60;99.90;;;;;;5054578;28;20604;-53
2023/05/04 01:53:12;;;;;;;1.97;1.73;;;8.50;99.90;;;;;;5054672;28;20488;-54
2023/05/04 01:55:41;;;;;;;3.10;2.37;;;8.20;99.90;;;;;;5054112;28;20532;-55
2023/05/04 01:58:07;;;;;;;2.77;2.40;;;7.90;99.90;;;;;;5054274;28;20827;-53
2023/05/04 02:00:34;;;;;;;3.63;2.30;;;8.20;99.90;;;;;;5054314;28;20547;-53
2023/05/04 02:03:01;;;;;;;2.90;2.20;;;8.20;99.90;;;;;;5054350;28;20525;-53
2023/05/04 02:05:28;;;;;;;2.30;2.10;;;8.20;99.90;;;;;;5053962;28;20987;-53
2023/05/04 02:07:55;;;;;;;3.13;2.20;;;8.40;99.90;;;;;;5053561;28;20531;-53
2023/05/04 02:10:22;;;;;;;2.17;1.90;;;8.40;99.90;;;;;;5053896;28;20525;-53
2023/05/04 02:12:50;;;;;;;2.20;2.00;;;8.50;99.90;;;;;;5053706;28;20473;-53
2023/05/04 02:15:17;;;;;;;1.87;1.67;;;8.40;99.90;;;;;;5053642;28;20445;-52
2023/05/04 02:17:45;;;;;;;2.20;2.00;;;8.40;99.90;;;;;;5054085;28;20469;-53
2023/05/04 02:20:12;;;;;;;2.37;1.97;;;8.60;99.90;;;;;;5053605;28;20517;-54
2023/05/04 02:22:39;;;;;;;2.27;1.47;;;8.50;99.90;;;;;;5053963;28;20446;-53
2023/05/04 02:25:07;;;;;;;3.03;2.20;;;8.60;99.90;;;;;;5053666;28;20445;-53
2023/05/04 02:27:34;;;;;;;3.20;2.13;;;8.40;99.90;;;;;;5053006;28;20564;-53
2023/05/04 02:30:03;;;;;;;2.23;2.03;;;8.50;99.90;;;;;;5053500;28;20485;-54
2023/05/04 02:32:30;;;;;;;2.50;2.03;;;8.40;99.90;;;;;;5053200;28;20452;-53
2023/05/04 02:34:57;;;;;;;2.93;2.63;;;8.30;99.90;;;;;;5053636;28;20442;-54
2023/05/04 02:37:24;;;;;;;2.27;2.00;;;8.20;99.90;;;;;;5052638;28;20473;-54
2023/05/04 02:39:51;;;;;;;2.30;2.03;;;8.50;99.90;;;;;;5053379;28;20478;-53
2023/05/04 02:42:18;;;;;;;2.60;2.00;;;8.60;99.90;;;;;;5053558;28;20504;-54
2023/05/04 02:44:45;;;;;;;9.27;4.37;;;8.50;99.90;;;;;;5053691;28;20525;-54
2023/05/04 02:47:13;;;;;;;12.47;6.00;;;8.50;99.90;;;;;;5053348;28;20922;-53
2023/05/04 02:49:40;;;;;;;5.47;3.73;;;8.50;99.90;;;;;;5053336;28;20537;-53
2023/05/04 02:52:07;;;;;;;2.50;2.30;;;8.50;99.90;;;;;;5052587;28;20501;-53
2023/05/04 02:54:34;;;;;;;2.60;2.37;;;8.40;99.90;;;;;;5053354;28;20449;-53
2023/05/04 02:57:01;;;;;;;2.43;2.23;;;8.40;99.90;;;;;;5053153;28;20845;-54
2023/05/04 02:59:28;;;;;;;2.20;2.00;;;8.40;99.90;;;;;;5053428;28;20449;-56
2023/05/04 03:01:55;;;;;;;1.83;1.63;;;8.30;99.90;;;;;;5052783;28;20565;-54
2023/05/04 03:04:23;;;;;;;3.40;1.90;;;8.10;99.90;;;;;;5032870;28;21008;-53
2023/05/04 03:06:50;;;;;;;2.70;2.10;;;8.10;99.90;;;;;;5041770;28;20556;-53
2023/05/04 03:09:17;;;;;;;2.53;2.33;;;8.00;99.90;;;;;;5052830;28;20884;-53
2023/05/04 03:11:44;;;;;;;2.37;2.10;;;8.00;99.90;;;;;;5052826;28;20500;-52
2023/05/04 03:14:11;;;;;;;2.63;1.77;;;8.20;99.90;;;;;;5052553;28;20438;-52
2023/05/04 03:16:38;;;;;;;2.40;2.20;;;8.20;99.90;;;;;;5052774;28;20469;-52
2023/05/04 03:19:05;;;;;;;3.50;2.40;;;8.20;99.90;;;;;;5052644;28;20524;-56
2023/05/04 03:21:33;;;;;;;2.30;1.70;;;8.00;99.90;;;;;;5052733;28;20551;-52
2023/05/04 03:24:00;;;;;;;2.47;2.10;;;7.90;99.90;;;;;;5051863;28;20474;-52
2023/05/04 03:26:27;;;;;;;2.57;2.10;;;7.90;99.90;;;;;;5052221;28;20546;-53
2023/05/04 03:28:54;;;;;;;2.83;2.17;;;7.90;99.90;;;;;;5052551;28;20485;-53
2023/05/04 03:31:21;;;;;;;4.07;2.30;;;7.90;99.90;;;;;;5051721;28;20496;-53
2023/05/04 03:33:48;;;;;;;16.57;11.13;;;7.80;99.90;;;;;;5052589;28;20464;-56
2023/05/04 03:36:15;;;;;;;4.90;2.90;;;7.90;99.90;;;;;;5052235;28;20532;-53
2023/05/04 03:38:43;;;;;;;3.40;2.23;;;7.90;99.90;;;;;;5051000;28;20871;-53
2023/05/04 03:41:10;;;;;;;2.80;2.47;;;8.00;99.90;;;;;;5052220;28;20544;-54
2023/05/04 03:43:37;;;;;;;3.20;1.80;;;8.00;99.90;;;;;;5052319;28;20442;-53
2023/05/04 03:46:04;;;;;;;2.17;1.90;;;8.00;99.90;;;;;;5052572;28;20469;-54
2023/05/04 03:48:31;;;;;;;2.60;1.80;;;7.80;99.90;;;;;;5051831;28;20474;-53
2023/05/04 03:50:58;;;;;;;2.53;2.33;;;7.70;99.90;;;;;;5052124;28;20565;-52
2023/05/04 03:53:25;;;;;;;5.10;2.20;;;7.50;99.90;;;;;;5052328;28;20875;-52
2023/05/04 03:55:53;;;;;;;2.40;2.10;;;7.50;99.90;;;;;;5051857;28;20446;-53
2023/05/04 03:58:20;;;;;;;3.70;2.37;;;7.70;99.90;;;;;;5051758;28;20470;-53
2023/05/04 04:00:47;;;;;;;19.43;15.10;;;7.80;99.90;;;;;;5051887;28;20466;-54
2023/05/04 04:03:14;;;;;;;4.37;3.87;;;7.90;99.90;;;;;;5051997;28;20537;-52
2023/05/04 04:05:41;;;;;;;4.63;2.93;;;7.80;99.90;;;;;;5051959;28;20452;-54
2023/05/04 04:08:08;;;;;;;8.20;7.30;;;7.80;99.90;;;;;;5051694;28;21044;-54
2023/05/04 04:10:35;;;;;;;11.87;9.57;;;7.50;99.90;;;;;;5051293;28;20466;-52
2023/05/04 04:13:03;;;;;;;11.20;9.80;;;7.40;99.90;;;;;;5051941;28;20521;-52
2023/05/04 04:15:30;;;;;;;6.00;4.30;;;7.50;99.90;;;;;;5051630;28;20532;-54
2023/05/04 04:17:57;;;;;;;2.90;2.60;;;7.70;99.90;;;;;;5051678;28;21022;-53
2023/05/04 04:20:24;;;;;;;2.77;2.57;;;7.70;99.90;;;;;;5051227;28;20505;-53
2023/05/04 04:22:51;;;;;;;2.00;1.87;;;7.70;99.90;;;;;;5051572;28;20944;-53
2023/05/04 04:25:18;;;;;;;3.27;3.00;;;7.80;99.90;;;;;;5051465;28;20544;-53
2023/05/04 04:27:45;;;;;;;6.60;6.00;;;7.60;99.90;;;;;;5051669;28;20568;-54
2023/05/04 04:30:14;;;;;;;3.53;3.13;;;7.70;99.90;;;;;;5051468;28;20477;-53
2023/05/04 04:32:41;;;;;;;6.23;5.47;;;7.60;99.90;;;;;;5050935;28;20524;-53
2023/05/04 04:35:09;;;;;;;3.10;2.60;;;7.70;99.90;;;;;;5051084;28;20474;-52
2023/05/04 04:37:35;;;;;;;3.47;2.93;;;7.60;99.90;;;;;;5050490;28;20437;-52
2023/05/04 04:40:03;;;;;;;4.87;3.80;;;7.70;99.90;;;;;;5051227;28;20930;-53
2023/05/04 04:42:29;;;;;;;3.43;3.13;;;7.60;99.90;;;;;;5051064;28;20450;-53
2023/05/04 04:44:56;;;;;;;4.10;2.80;;;7.40;99.90;;;;;;5051382;28;20481;-52
2023/05/04 04:47:25;;;;;;;4.30;3.03;;;7.40;99.90;;;;;;5050839;28;20556;-54
2023/05/04 04:49:52;;;;;;;12.80;11.50;;;7.40;99.90;;;;;;5050792;28;20503;-53
2023/05/04 04:52:19;;;;;;;5.67;5.00;;;7.50;99.90;;;;;;5051458;28;20856;-55
2023/05/04 04:54:46;;;;;;;5.30;4.23;;;7.70;99.90;;;;;;5051062;28;20537;-53
2023/05/04 04:57:13;;;;;;;4.13;3.07;;;7.80;99.90;;;;;;5050894;28;20532;-53
2023/05/04 04:59:40;;;;;;;7.60;6.60;;;7.90;99.90;;;;;;5050925;28;20482;-55
2023/05/04 05:02:08;;;;;;;5.97;4.50;;;7.80;99.90;;;;;;5050845;28;20461;-52
2023/05/04 05:04:39;;;;;;;5.57;3.73;;;7.70;99.90;;;;;;5050776;28;20880;-52
2023/05/04 05:07:07;;;;;;;5.70;4.93;;;7.30;99.90;;;;;;5050637;28;20507;-53
2023/05/04 05:09:34;;;;;;;4.60;4.20;;;7.30;99.90;;;;;;5050790;28;20445;-55
2023/05/04 05:12:01;;;;;;;3.77;3.03;;;7.50;99.90;;;;;;5050708;28;20983;-53
2023/05/04 05:14:30;;;;;;;3.07;2.27;;;7.70;99.90;;;;;;5051005;28;20532;-53
2023/05/04 05:16:57;;;;;;;2.87;2.13;;;7.70;99.90;;;;;;5050229;28;20962;-53
2023/05/04 05:19:24;;;;;;;2.60;2.20;;;7.90;99.90;;;;;;5051024;28;20528;-53
2023/05/04 05:21:53;;;;;;;2.87;2.07;;;7.90;99.90;;;;;;5050715;28;20469;-53
2023/05/04 05:24:20;;;;;;;2.23;1.80;;;7.80;99.90;;;;;;5050731;28;20470;-54
2023/05/04 05:26:47;;;;;;;3.93;2.83;;;7.80;99.90;;;;;;5050859;28;21015;-53
2023/05/04 05:29:14;;;;;;;3.03;2.50;;;7.70;99.90;;;;;;5050586;28;20635;-52
2023/05/04 05:31:40;;;;;;;2.97;2.67;;;7.50;99.90;;;;;;5050320;28;20494;-53
2023/05/04 05:34:08;;;;;;;7.40;5.57;;;7.50;99.90;;;;;;5049935;28;20540;-54
2023/05/04 05:36:34;;;;;;;7.60;5.47;;;7.60;99.90;;;;;;5050020;28;20821;-52
2023/05/04 05:39:04;;;;;;;10.87;6.90;;;7.70;99.90;;;;;;5050411;28;20474;-53
2023/05/04 05:41:31;;;;;;;7.63;5.10;;;7.80;99.90;;;;;;5050147;28;20470;-53
2023/05/04 05:43:58;;;;;;;23.17;14.30;;;7.80;99.90;;;;;;5049783;28;20478;-55
2023/05/04 05:46:26;;;;;;;31.50;20.50;;;7.90;99.90;;;;;;5050498;28;20450;-53
2023/05/04 05:48:53;;;;;;;36.83;22.87;;;7.90;99.90;;;;;;5050449;28;20481;-53
2023/05/04 05:51:20;;;;;;;54.47;35.00;;;7.90;99.90;;;;;;5050455;28;20504;-53
2023/05/04 05:53:47;;;;;;;55.97;39.00;;;7.90;99.90;;;;;;5049732;28;20481;-53
2023/05/04 05:56:16;;;;;;;68.13;48.00;;;8.00;99.90;;;;;;5049984;28;20537;-53
2023/05/04 05:58:43;;;;;;;14.53;11.80;;;8.10;99.90;;;;;;5050369;28;20447;-53
2023/05/04 06:01:10;;;;;;;20.83;13.30;;;8.00;99.90;;;;;;5050958;28;20833;-53
2023/05/04 06:03:36;;;;;;;12.10;8.90;;;8.00;99.90;;;;;;5053889;28;20503;-55
2023/05/04 06:06:04;;;;;;;12.60;9.50;;;8.10;99.90;;;;;;5053167;28;21028;-53
2023/05/04 06:08:31;;;;;;;7.60;6.37;;;8.10;99.90;;;;;;5054273;28;20562;-52
2023/05/04 06:10:58;;;;;;;3.57;2.83;;;8.10;99.90;;;;;;5053845;28;20873;-53
2023/05/04 06:13:26;;;;;;;4.90;3.20;;;7.90;99.90;;;;;;5052180;28;20536;-55
2023/05/04 06:15:53;;;;;;;2.40;2.20;;;7.90;99.90;;;;;;5053804;28;20529;-54
2023/05/04 06:18:20;;;;;;;3.67;2.13;;;7.90;99.90;;;;;;5053751;28;20433;-53
2023/05/04 06:20:47;;;;;;;2.77;2.20;;;7.90;99.90;;;;;;5052622;28;20463;-53
2023/05/04 06:23:15;;;;;;;3.83;3.10;;;8.00;99.90;;;;;;5054285;28;20533;-53
2023/05/04 06:25:42;;;;;;;3.33;2.97;;;8.20;99.90;;;;;;5053631;28;20449;-54
2023/05/04 06:28:09;;;;;;;2.90;2.60;;;8.30;99.90;;;;;;5053983;28;20560;-54
2023/05/04 06:30:37;;;;;;;4.43;2.80;;;8.40;99.90;;;;;;5050288;28;20549;-54
2023/05/04 06:33:04;;;;;;;3.50;2.87;;;8.60;99.90;;;;;;5052349;28;20529;-54
2023/05/04 06:35:31;;;;;;;2.70;2.50;;;8.80;99.90;;;;;;5050374;28;20807;-53
2023/05/04 06:37:58;;;;;;;2.50;2.13;;;9.00;99.90;;;;;;5052130;28;20538;-53
2023/05/04 06:40:26;;;;;;;2.10;1.90;;;9.00;99.90;;;;;;5052449;28;20540;-53
2023/05/04 06:42:53;;;;;;;2.47;2.27;;;9.20;99.90;;;;;;5051219;28;20473;-54
2023/05/04 06:45:20;;;;;;;3.20;2.57;;;9.20;99.90;;;;;;5052437;28;20558;-53
2023/05/04 06:47:48;;;;;;;2.27;2.07;;;9.30;99.90;;;;;;5052189;28;20442;-54
2023/05/04 06:50:15;;;;;;;2.37;2.10;;;9.40;99.90;;;;;;5051383;28;20533;-54
2023/05/04 06:52:45;;;;;;;4.43;3.73;;;9.50;99.90;;;;;;5051977;28;20545;-54
2023/05/04 06:55:12;;;;;;;5.20;3.83;;;9.70;99.90;;;;;;5051842;28;20516;-52
2023/05/04 06:57:39;;;;;;;3.93;2.67;;;9.80;99.90;;;;;;5052101;28;20450;-54
2023/05/04 07:00:08;;;;;;;3.00;2.50;;;9.90;99.90;;;;;;5051232;28;20526;-54
2023/05/04 07:02:35;;;;;;;2.30;2.10;;;10.00;99.90;;;;;;5050801;28;20663;-53
2023/05/04 07:05:04;;;;;;;2.80;2.10;;;10.10;99.90;;;;;;5052715;28;21008;-53
2023/05/04 07:07:31;;;;;;;2.47;1.93;;;10.10;99.90;;;;;;5051146;28;20534;-54
2023/05/04 07:09:58;;;;;;;3.80;2.43;;;10.00;99.90;;;;;;5052395;28;20507;-54
2023/05/04 07:12:25;;;;;;;2.50;2.30;;;10.10;99.90;;;;;;5052157;28;20524;-53
2023/05/04 07:14:51;;;;;;;4.07;2.30;;;10.20;99.90;;;;;;5051604;28;20475;-53
2023/05/04 07:17:20;;;;;;;2.67;2.33;;;10.20;99.90;;;;;;5050842;28;20867;-53
2023/05/04 07:19:48;;;;;;;2.33;2.13;;;10.30;99.90;;;;;;5049448;28;20534;-53
2023/05/04 07:22:17;;;;;;;5.20;3.23;;;10.30;99.90;;;;;;5047198;28;20467;-53
2023/05/04 07:24:44;;;;;;;3.10;2.53;;;10.60;99.90;;;;;;5052872;28;20532;-53
2023/05/04 07:27:11;;;;;;;2.10;1.93;;;10.60;99.90;;;;;;5050546;28;20449;-53
2023/05/04 07:29:38;;;;;;;4.00;2.90;;;10.60;99.90;;;;;;5048378;28;20513;-54
2023/05/04 07:32:05;;;;;;;3.80;2.10;;;10.50;99.90;;;;;;5049780;28;20546;-53
2023/05/04 07:34:33;;;;;;;2.60;2.27;;;10.40;99.90;;;;;;5051902;28;20508;-54
2023/05/04 07:37:00;;;;;;;2.77;2.07;;;10.60;99.90;;;;;;5050596;28;20479;-54
2023/05/04 07:39:28;;;;;;;3.00;2.40;;;10.70;99.90;;;;;;5049931;28;20858;-55
2023/05/04 07:41:55;;;;;;;2.23;1.90;;;10.70;99.90;;;;;;5051512;28;20550;-55
2023/05/04 07:44:22;;;;;;;2.30;1.83;;;10.90;99.90;;;;;;5051300;28;20482;-53
2023/05/04 07:46:49;;;;;;;1.97;1.67;;;10.70;99.90;;;;;;5051692;28;20472;-53
2023/05/04 07:49:16;;;;;;;3.10;2.50;;;10.70;99.90;;;;;;5050497;28;20507;-54
2023/05/04 07:51:43;;;;;;;2.10;1.87;;;10.90;99.90;;;;;;5051875;28;20514;-54
2023/05/04 07:54:10;;;;;;;2.30;1.73;;;10.80;99.90;;;;;;5048088;28;20525;-53
2023/05/04 07:56:38;;;;;;;2.03;1.77;;;11.00;99.90;;;;;;5032594;28;20533;-54
2023/05/04 07:59:05;;;;;;;2.30;2.10;;;11.10;99.90;;;;;;5045501;28;20568;-54
2023/05/04 08:01:32;;;;;;;5.43;2.37;;;11.30;99.90;;;;;;5051026;28;20570;-54
2023/05/04 08:03:59;;;;;;;3.53;1.70;;;11.50;99.90;;;;;;5051354;28;20475;-54
2023/05/04 08:06:26;;;;;;;2.70;1.70;;;11.40;99.90;;;;;;5052256;28;20498;-53
2023/05/04 08:08:53;;;;;;;2.80;2.50;;;11.50;99.90;;;;;;5051450;28;20571;-56
2023/05/04 08:11:20;;;;;;;2.60;1.90;;;11.60;99.90;;;;;;5051699;28;20508;-53
2023/05/04 08:13:49;;;;;;;2.93;2.00;;;11.70;99.90;;;;;;5041407;28;20539;-54
2023/05/04 08:16:16;;;;;;;2.93;2.00;;;11.80;99.90;;;;;;5050284;28;20664;-54
2023/05/04 08:18:43;;;;;;;2.20;2.00;;;12.00;99.90;;;;;;5051888;28;20472;-54
2023/05/04 08:21:10;;;;;;;2.63;2.27;;;12.10;99.90;;;;;;5051096;28;20978;-54
2023/05/04 08:23:37;;;;;;;2.07;1.60;;;12.30;99.90;;;;;;5051444;28;20479;-54
2023/05/04 08:26:05;;;;;;;2.67;2.30;;;12.50;99.90;;;;;;5050806;28;20484;-55
2023/05/04 08:28:36;;;;;;;2.30;2.00;;;12.50;99.90;;;;;;5051219;28;20516;-56
2023/05/04 08:31:05;;;;;;;2.10;1.57;;;12.60;99.90;;;;;;5051625;28;20469;-54
2023/05/04 08:33:32;;;;;;;2.10;1.90;;;12.60;99.90;;;;;;5051738;28;20514;-55
2023/05/04 08:35:59;;;;;;;2.30;1.83;;;12.60;99.90;;;;;;5051268;28;20533;-54
2023/05/04 08:38:26;;;;;;;2.00;1.80;;;12.70;99.90;;;;;;5050854;28;20481;-53
2023/05/04 08:40:53;;;;;;;12.10;6.87;;;12.80;99.90;;;;;;5051440;28;20497;-53
2023/05/04 08:43:20;;;;;;;2.33;2.13;;;12.80;99.90;;;;;;5050619;28;20491;-54
2023/05/04 08:45:48;;;;;;;2.30;2.10;;;13.00;99.90;;;;;;5050200;28;20481;-53
2023/05/04 08:48:16;;;;;;;3.57;1.83;;;13.20;99.90;;;;;;5051088;28;20449;-52
2023/05/04 08:50:44;;;;;;;2.50;1.70;;;13.30;99.90;;;;;;5050615;28;20489;-54
2023/05/04 08:53:13;;;;;;;2.37;1.77;;;13.30;99.90;;;;;;5050156;28;20441;-54
2023/05/04 08:55:42;;;;;;;3.60;1.80;;;13.20;99.90;;;;;;5050542;28;20904;-52
2023/05/04 08:58:11;;;;;;;1.83;1.60;;;13.30;99.90;;;;;;5049305;28;20532;-53
2023/05/04 09:00:39;;;;;;;1.70;1.60;;;13.50;99.90;;;;;;5048875;28;20663;-50
2023/05/04 09:03:09;;;;;;;2.57;2.03;;;13.60;99.90;;;;;;5049855;28;20509;-53
2023/05/04 09:05:37;;;;;;;1.80;1.30;;;13.60;99.90;;;;;;5050102;28;20437;-54
2023/05/04 09:08:05;;;;;;;4.80;2.20;;;13.70;99.90;;;;;;5050366;28;20495;-55
2023/05/04 09:10:33;;;;;;;4.20;2.00;;;13.80;99.90;;;;;;5050070;28;20477;-55
2023/05/04 09:13:00;;;;;;;2.50;1.90;;;14.10;99.90;;;;;;5050589;28;20445;-55
2023/05/04 09:15:27;;;;;;;2.10;1.80;;;14.10;99.90;;;;;;5049895;28;20474;-54
2023/05/04 09:17:58;;;;;;;3.60;2.10;;;14.00;99.90;;;;;;5049745;28;20528;-58
2023/05/04 09:20:25;;;;;;;3.97;1.60;;;14.10;99.90;;;;;;5050501;28;20540;-56
2023/05/04 09:23:06;;;;;;;2.23;1.80;;;14.30;99.90;;;;;;5050729;28;20731;-57
2023/05/04 09:25:34;;;;;;;2.10;1.70;;;14.40;99.90;;;;;;5050534;28;20456;-57
2023/05/04 09:28:01;;;;;;;2.10;1.80;;;14.50;99.90;;;;;;5050325;28;20816;-59
2023/05/04 09:30:28;;;;;;;2.27;1.87;;;14.40;99.90;;;;;;5049800;28;20919;-58
2023/05/04 09:32:56;;;;;;;2.57;1.57;;;14.60;99.90;;;;;;5050886;28;20472;-58
2023/05/04 09:35:30;;;;;;;2.40;2.20;;;14.80;99.90;;;;;;5050686;28;20449;-55
2023/05/04 09:37:57;;;;;;;2.77;2.00;;;14.90;99.90;;;;;;5052046;28;20867;-58
2023/05/04 09:40:32;;;;;;;2.27;1.63;;;14.90;99.90;;;;;;5052966;28;20461;-58
2023/05/04 09:42:59;;;;;;;2.17;1.97;;;14.90;99.90;;;;;;5048878;28;20922;-58
2023/05/04 09:45:27;;;;;;;2.70;1.93;;;15.00;99.90;;;;;;5052568;28;20441;-58
2023/05/04 09:47:56;;;;;;;4.63;2.27;;;15.00;99.90;;;;;;5053809;28;20456;-59
2023/05/04 09:50:24;;;;;;;2.20;1.90;;;15.30;99.90;;;;;;5053175;28;20481;-59
2023/05/04 09:52:51;;;;;;;2.77;2.07;;;15.20;99.90;;;;;;5053828;28;20449;-59
2023/05/04 09:55:19;;;;;;;3.63;1.73;;;15.30;99.90;;;;;;5054132;28;20507;-60
2023/05/04 09:57:49;;;;;;;2.10;1.90;;;15.30;99.90;;;;;;5053078;28;20528;-58
2023/05/04 10:00:17;;;;;;;1.80;1.70;;;15.30;99.90;;;;;;5050800;28;20437;-59
2023/05/04 10:02:45;;;;;;;1.80;1.70;;;15.40;99.90;;;;;;5052009;28;20525;-59
2023/05/04 10:05:15;;;;;;;2.53;2.20;;;15.60;99.90;;;;;;5052546;28;20445;-58
2023/05/04 10:07:43;;;;;;;4.00;2.00;;;15.70;99.90;;;;;;5052722;28;20468;-58
2023/05/04 10:10:12;;;;;;;2.50;1.83;;;15.70;99.90;;;;;;5050107;28;20572;-59
2023/05/04 10:12:39;;;;;;;2.43;2.03;;;15.90;99.90;;;;;;5047963;28;20468;-59
2023/05/04 10:15:09;;;;;;;2.97;1.57;;;15.90;99.90;;;;;;5046785;28;20900;-58
2023/05/04 10:17:53;;;;;;;2.00;1.80;;;15.90;99.90;;;;;;5044224;28;20509;-58
2023/05/04 10:20:33;;;;;;;3.70;1.80;;;15.90;99.90;;;;;;5044474;28;20517;-59
2023/05/04 10:23:20;;;;;;;1.80;1.40;;;16.10;99.90;;;;;;5050133;28;21009;-59
2023/05/04 10:26:22;;;;;;;2.80;1.73;;;15.90;99.90;;;;;;5034185;28;20496;-59
2023/05/04 10:29:03;;;;;;;1.60;1.50;;;16.00;99.90;;;;;;5040229;28;20896;-58
2023/05/04 10:31:39;;;;;;;1.93;1.60;;;16.20;99.90;;;;;;5048716;28;20495;-58
2023/05/04 10:34:07;;;;;;;2.10;1.90;;;16.20;99.90;;;;;;5042797;28;20450;-58
2023/05/04 10:36:37;;;;;;;2.80;2.10;;;16.20;99.90;;;;;;5045355;28;20695;-58
2023/05/04 10:39:05;;;;;;;2.37;1.90;;;16.30;99.90;;;;;;5040692;28;20445;-59
2023/05/04 10:41:32;;;;;;;2.10;1.80;;;16.40;99.90;;;;;;5044675;28;20470;-58
2023/05/04 10:44:06;;;;;;;1.80;1.50;;;16.30;99.90;;;;;;5045076;28;20944;-57
2023/05/04 10:46:32;;;;;;;3.17;2.00;;;16.30;99.90;;;;;;5044596;28;20474;-59
2023/05/04 10:49:01;;;;;;;1.60;1.30;;;16.40;99.90;;;;;;5051974;28;20528;-58
2023/05/04 10:51:28;;;;;;;3.43;2.83;;;16.40;99.90;;;;;;5081277;22;21190;-88
2023/05/04 10:53:54;;;;;;;2.17;1.67;;;16.60;99.90;;;;;;5090104;28;20510;-87
2023/05/04 10:56:23;;;;;;;1.40;1.27;;;16.70;99.90;;;;;;5095370;28;20442;-85
2023/05/04 10:58:50;;;;;;;2.07;1.30;;;16.70;99.90;;;;;;5095898;28;20502;-86
2023/05/04 11:01:17;;;;;;;1.60;1.30;;;16.80;99.90;;;;;;5089370;28;20475;-85
2023/05/04 11:03:45;;;;;;;1.50;1.40;;;17.00;99.90;;;;;;5088978;28;20450;-86
2023/05/04 11:06:21;;;;;;;1.90;1.50;;;17.20;99.90;;;;;;5086164;28;20500;-84
2023/05/04 11:08:59;;;;;;;1.83;1.70;;;16.90;99.90;;;;;;5092014;28;20474;-86
2023/05/04 11:11:26;;;;;;;2.10;1.57;;;17.30;99.90;;;;;;5094000;28;20434;-85
2023/05/04 11:13:54;;;;;;;3.03;2.07;;;17.10;99.90;;;;;;5090122;28;20462;-86
2023/05/04 11:16:23;;;;;;;8.00;3.83;;;16.90;99.90;;;;;;5091597;28;20454;-86
2023/05/04 11:18:50;;;;;;;2.90;2.07;;;17.10;99.90;;;;;;5094242;28;20503;-86
2023/05/04 11:21:25;;;;;;;1.90;1.50;;;17.30;99.90;;;;;;5094881;28;20943;-86
2023/05/04 11:23:55;;;;;;;2.37;1.70;;;17.40;99.90;;;;;;5094940;28;20446;-86
2023/05/04 11:26:23;;;;;;;2.27;1.60;;;17.40;99.90;;;;;;5113436;28;20444;-86
2023/05/04 11:28:50;;;;;;;2.57;1.70;;;17.60;99.90;;;;;;5094203;28;20450;-86
2023/05/04 11:31:18;;;;;;;1.93;1.70;;;17.40;99.90;;;;;;5079243;28;20619;-86
2023/05/04 11:33:46;;;;;;;1.87;1.67;;;17.50;99.90;;;;;;5086532;28;20454;-86
2023/05/04 11:36:14;;;;;;;1.90;1.60;;;17.60;99.90;;;;;;5086037;28;20451;-86
2023/05/04 11:38:42;;;;;;;2.67;2.03;;;17.80;99.90;;;;;;5089820;28;20503;-86
2023/05/04 11:41:09;;;;;;;2.67;1.83;;;17.50;99.90;;;;;;5092087;28;20855;-86
2023/05/04 11:43:37;;;;;;;2.13;1.77;;;17.60;99.90;;;;;;5085513;28;20478;-86
2023/05/04 11:46:06;;;;;;;2.43;1.90;;;17.60;99.90;;;;;;5093992;28;20453;-87
2023/05/04 11:48:34;;;;;;;2.30;2.03;;;17.70;99.90;;;;;;5083731;28;20469;-87
2023/05/04 11:51:02;;;;;;;4.00;2.00;;;18.00;99.90;;;;;;5089659;28;20524;-86
2023/05/04 11:53:37;;;;;;;5.00;2.00;;;17.90;99.90;;;;;;5074112;28;20468;-86
2023/05/04 11:56:07;;;;;;;2.97;1.67;;;17.70;99.90;;;;;;5084381;28;20956;-86
2023/05/04 11:58:34;;;;;;;2.07;1.87;;;17.70;99.90;;;;;;5092504;28;20459;-86
2023/05/04 12:01:02;;;;;;;2.37;1.87;;;17.90;99.90;;;;;;5084531;28;20795;-86
2023/05/04 12:03:31;;;;;;;2.50;2.30;;;17.80;99.90;;;;;;5087685;28;20493;-86
2023/05/04 12:05:59;;;;;;;1.97;1.77;;;17.80;99.90;;;;;;5095554;28;20443;-86
2023/05/04 12:08:28;;;;;;;2.83;2.17;;;18.10;99.90;;;;;;5094336;28;20489;-87
2023/05/04 12:11:15;;;;;;;2.30;1.53;;;18.20;99.90;;;;;;5092752;28;20532;-87
2023/05/04 12:13:43;;;;;;;1.90;1.70;;;18.40;99.90;;;;;;5092563;28;20455;-87
2023/05/04 12:16:11;;;;;;;3.20;2.07;;;18.60;99.90;;;;;;5092827;28;20471;-87
2023/05/04 12:18:38;;;;;;;2.70;1.50;;;18.20;99.90;;;;;;5093365;28;20524;-86
2023/05/04 12:21:10;;;;;;;2.73;1.67;;;18.20;99.90;;;;;;5082462;28;20463;-86
2023/05/04 12:23:37;;;;;;;1.80;1.70;;;18.30;99.90;;;;;;5078785;28;20481;-86
2023/05/04 12:26:04;;;;;;;1.73;1.40;;;18.20;99.90;;;;;;5084689;28;20492;-86
2023/05/04 12:28:33;;;;;;;1.80;1.40;;;18.30;99.90;;;;;;5088638;28;21008;-86
2023/05/04 12:31:00;;;;;;;1.60;1.50;;;18.50;99.90;;;;;;5086979;28;20496;-86
2023/05/04 12:33:27;;;;;;;1.73;1.60;;;18.40;99.90;;;;;;5089222;28;20445;-86
2023/05/04 12:35:54;;;;;;;3.27;1.50;;;18.60;99.90;;;;;;5086090;28;20522;-87
2023/05/04 12:38:21;;;;;;;4.00;3.70;;;18.50;99.90;;;;;;5083756;28;20451;-86
2023/05/04 12:40:48;;;;;;;2.27;1.60;;;18.80;99.90;;;;;;5090483;28;20662;-87
2023/05/04 12:43:17;;;;;;;2.20;1.60;;;18.60;99.90;;;;;;5092413;28;20467;-87
2023/05/04 12:45:45;;;;;;;1.83;1.47;;;18.90;99.90;;;;;;5092611;28;20487;-87
2023/05/04 12:48:12;;;;;;;2.20;1.20;;;19.00;99.10;;;;;;5093514;28;20570;-87
2023/05/04 12:50:39;;;;;;;2.47;1.70;;;19.10;99.90;;;;;;5093106;28;20514;-87
2023/05/04 12:53:07;;;;;;;2.40;1.40;;;19.20;99.90;;;;;;5093284;28;20452;-87
2023/05/04 12:55:34;;;;;;;2.50;1.77;;;19.40;99.90;;;;;;5093336;28;20466;-86